Terminal Aerodrome Forecast
Issued by NWS

Home | Current Version | Previous Version | Text Only | Print | Product List | Glossary On
Versions: 1 2 3 4 5 6 7 8 9 10 11 12 13
000
FTUS44 KBMX 011100 RRA
TAFTCL
TAF
KTCL 011140Z 0112/0212 14005KT P6SM OVC120
     FM011330 15008KT 6SM -RA BR OVC035
     FM011700 18009G15KT 2SM RA BR OVC007
     FM020400 25011G17KT 5SM -RA BR OVC015
     FM020700 30011G17KT P6SM OVC025=

USA.gov is the U.S. government's official web portal to all federal, state and local government web resources and services.